Time;durP1;ratioP1;P1;durP2;ratioP2;P2;SDS_P1;SDS_P2;PMS_P1;PMS_P2;Temp;Humidity;BMP_temperature;BMP_pressure;BME280_temperature;BME280_humidity;BME280_pressure;Samples;Min_cycle;Max_cycle;Signal;HPM_P1;HPM_P2
2023/07/07 00:01:49;;;;;;;3.53;1.80;;;13.00;99.90;;;;;;4945835;28;20047;-64
2023/07/07 00:04:15;;;;;;;5.55;2.38;;;13.10;99.90;;;;;;4948851;29;20090;-63
2023/07/07 00:06:41;;;;;;;4.05;1.75;;;13.00;99.90;;;;;;4949998;29;20506;-64
2023/07/07 00:09:07;;;;;;;5.20;1.95;;;13.00;99.90;;;;;;4948775;29;20050;-64
2023/07/07 00:11:33;;;;;;;1.98;1.48;;;13.00;99.90;;;;;;4950148;29;20043;-64
2023/07/07 00:13:59;;;;;;;4.07;1.90;;;13.00;99.90;;;;;;4949020;29;20149;-63
2023/07/07 00:16:28;;;;;;;5.43;1.90;;;13.00;99.90;;;;;;4931922;29;20379;-64
2023/07/07 00:18:54;;;;;;;3.45;1.80;;;13.00;99.90;;;;;;4949740;29;20043;-64
2023/07/07 00:21:24;;;;;;;2.10;1.73;;;13.00;99.90;;;;;;4948135;29;20043;-64
2023/07/07 00:23:57;;;;;;;3.90;2.00;;;12.90;99.90;;;;;;4950047;29;20523;-64
2023/07/07 00:26:24;;;;;;;1.98;1.77;;;12.90;99.90;;;;;;4931243;29;20072;-64
2023/07/07 00:28:51;;;;;;;2.60;1.90;;;12.90;99.90;;;;;;4949828;29;20043;-64
2023/07/07 00:31:20;;;;;;;3.88;2.05;;;13.00;99.90;;;;;;4949586;28;20046;-63
2023/07/07 00:33:47;;;;;;;3.47;2.00;;;12.90;99.90;;;;;;4935865;29;20135;-63
2023/07/07 00:36:12;;;;;;;4.15;2.15;;;12.90;99.90;;;;;;4949472;29;20398;-64
2023/07/07 00:38:39;;;;;;;4.40;1.80;;;12.90;99.90;;;;;;4948498;29;20047;-64
2023/07/07 00:41:07;;;;;;;1.90;1.80;;;12.90;99.90;;;;;;4949655;29;20126;-64
2023/07/07 00:43:33;;;;;;;5.85;2.63;;;12.90;99.90;;;;;;4947576;29;20046;-64
2023/07/07 00:46:00;;;;;;;6.03;1.98;;;12.90;99.90;;;;;;4949906;29;20042;-64
2023/07/07 00:48:44;;;;;;;3.20;2.00;;;12.90;99.90;;;;;;4949036;29;20616;-63
2023/07/07 00:51:15;;;;;;;4.30;2.17;;;12.80;99.90;;;;;;4931307;29;20055;-63
2023/07/07 00:53:45;;;;;;;3.70;2.10;;;12.80;99.90;;;;;;4949559;29;20047;-63
2023/07/07 00:56:13;;;;;;;;;;;12.80;99.90;;;;;;4948370;29;20186;-64
2023/07/07 00:58:42;;;;;;;2.28;1.73;;;12.80;99.90;;;;;;4949369;28;20395;-64
2023/07/07 01:01:17;;;;;;;2.10;1.90;;;12.80;99.90;;;;;;4947421;28;20498;-63
2023/07/07 01:03:48;;;;;;;2.65;2.25;;;12.70;99.90;;;;;;4941015;29;20051;-64
2023/07/07 01:06:19;;;;;;;5.78;2.50;;;12.70;99.90;;;;;;4949579;29;20066;-63
2023/07/07 01:08:50;;;;;;;5.35;2.47;;;12.80;99.90;;;;;;4947888;29;20051;-63
2023/07/07 01:11:18;;;;;;;3.63;2.22;;;12.80;99.90;;;;;;4932144;29;20407;-64
2023/07/07 01:13:44;;;;;;;5.95;2.38;;;12.80;99.90;;;;;;4947857;29;20057;-63
2023/07/07 01:16:47;;;;;;;6.03;2.38;;;12.80;99.90;;;;;;4928609;29;20057;-63
2023/07/07 01:19:50;;;;;;;6.85;2.42;;;12.80;99.90;;;;;;4944682;29;20147;-65
2023/07/07 01:22:36;;;;;;;2.65;2.15;;;12.90;99.90;;;;;;4923318;29;20433;-64
2023/07/07 01:25:36;;;;;;;6.15;2.67;;;12.80;99.90;;;;;;4939745;29;20051;-63
2023/07/07 01:28:31;;;;;;;6.13;2.33;;;12.80;99.90;;;;;;4946787;29;20219;-63
2023/07/07 01:31:02;;;;;;;4.03;2.85;;;12.80;99.90;;;;;;4948128;29;20379;-64
2023/07/07 01:33:31;;;;;;;5.93;3.13;;;12.80;99.90;;;;;;4949574;29;20088;-63
2023/07/07 01:35:57;;;;;;;5.10;2.45;;;12.70;99.90;;;;;;4915481;29;20047;-63
2023/07/07 01:38:37;;;;;;;3.75;3.15;;;12.70;99.90;;;;;;4947924;29;20045;-64
2023/07/07 01:41:23;;;;;;;5.10;2.63;;;12.70;99.90;;;;;;4931946;29;20059;-64
2023/07/07 01:43:54;;;;;;;5.10;2.55;;;12.60;99.90;;;;;;4929962;29;20646;-64
2023/07/07 01:46:34;;;;;;;4.85;2.92;;;12.60;99.90;;;;;;4931649;29;20093;-64
2023/07/07 01:49:15;;;;;;;3.45;2.70;;;12.60;99.90;;;;;;4948080;29;20531;-63
2023/07/07 01:51:58;;;;;;;2.75;2.58;;;12.60;99.90;;;;;;4930657;29;20059;-63
2023/07/07 01:54:26;;;;;;;5.82;2.60;;;12.50;99.90;;;;;;4931679;29;20562;-63
2023/07/07 01:56:54;;;;;;;4.35;2.83;;;12.50;99.90;;;;;;4947248;29;20078;-63
2023/07/07 01:59:21;;;;;;;6.20;2.22;;;12.50;99.90;;;;;;4948573;29;20494;-64
2023/07/07 02:01:47;;;;;;;2.97;2.17;;;12.40;99.90;;;;;;4922751;29;20075;-63
2023/07/07 02:04:13;;;;;;;6.85;2.75;;;12.40;99.90;;;;;;4931186;29;20039;-63
2023/07/07 02:06:39;;;;;;;2.85;2.42;;;12.30;99.90;;;;;;4948946;29;20043;-63
2023/07/07 02:09:05;;;;;;;3.20;2.80;;;12.30;99.90;;;;;;4947592;29;20402;-63
2023/07/07 02:11:30;;;;;;;3.28;2.83;;;12.30;99.90;;;;;;4950990;28;20417;-63
2023/07/07 02:13:56;;;;;;;5.30;2.25;;;12.20;99.90;;;;;;4950667;29;20043;-64
2023/07/07 02:16:23;;;;;;;5.43;3.03;;;12.20;99.90;;;;;;4952219;29;20046;-64
2023/07/07 02:18:49;;;;;;;4.75;3.05;;;12.20;99.90;;;;;;4950517;29;20091;-64
2023/07/07 02:21:18;;;;;;;5.20;2.97;;;12.20;99.90;;;;;;4951768;29;20118;-64
2023/07/07 02:23:45;;;;;;;3.00;2.47;;;12.20;99.90;;;;;;4951856;29;20122;-63
2023/07/07 02:26:14;;;;;;;3.85;2.40;;;12.20;99.90;;;;;;4951129;29;20126;-64
2023/07/07 02:28:40;;;;;;;6.20;2.72;;;12.10;99.90;;;;;;4951503;29;20511;-63
2023/07/07 02:31:06;;;;;;;6.80;3.00;;;12.10;99.90;;;;;;4950623;29;20051;-64
2023/07/07 02:33:32;;;;;;;2.88;2.60;;;12.10;99.90;;;;;;4952025;29;20050;-63
2023/07/07 02:36:06;;;;;;;5.47;2.65;;;12.00;99.90;;;;;;4950835;29;20345;-64
2023/07/07 02:38:34;;;;;;;2.75;2.42;;;11.90;99.90;;;;;;4946026;29;20047;-63
2023/07/07 02:41:01;;;;;;;4.00;2.80;;;11.90;99.90;;;;;;4951126;29;20501;-63
2023/07/07 02:43:28;;;;;;;4.53;3.22;;;11.80;99.90;;;;;;4950685;29;20082;-63
2023/07/07 02:45:53;;;;;;;6.22;3.08;;;11.80;99.90;;;;;;4934662;29;20051;-63
2023/07/07 02:48:21;;;;;;;3.85;3.42;;;11.80;99.90;;;;;;4932122;29;20106;-64
2023/07/07 02:51:01;;;;;;;8.95;3.67;;;11.80;99.90;;;;;;4952058;29;20062;-63
2023/07/07 02:53:34;;;;;;;4.47;3.58;;;11.70;99.90;;;;;;4950060;29;20493;-64
2023/07/07 02:56:00;;;;;;;6.30;4.03;;;11.70;99.90;;;;;;4951498;29;20417;-64
2023/07/07 02:58:26;;;;;;;3.47;3.17;;;11.70;99.90;;;;;;4917339;29;20058;-64
2023/07/07 03:00:53;;;;;;;5.25;3.63;;;11.70;99.90;;;;;;4950503;28;20051;-64
2023/07/07 03:03:20;;;;;;;8.85;3.58;;;11.70;99.90;;;;;;4945577;29;20055;-63
2023/07/07 03:05:46;;;;;;;5.82;3.85;;;11.70;99.90;;;;;;4950020;29;20051;-63
2023/07/07 03:08:13;;;;;;;5.68;4.15;;;11.70;99.90;;;;;;4951761;29;20554;-64
2023/07/07 03:10:40;;;;;;;3.42;3.22;;;11.70;99.90;;;;;;4931911;29;20502;-63
2023/07/07 03:13:07;;;;;;;9.10;3.83;;;11.70;99.90;;;;;;4934356;29;20047;-63
2023/07/07 03:15:40;;;;;;;11.80;3.83;;;11.70;99.90;;;;;;4933008;29;20105;-63
2023/07/07 03:18:09;;;;;;;4.00;3.70;;;11.80;99.90;;;;;;4950719;29;20130;-64
2023/07/07 03:20:36;;;;;;;6.85;4.00;;;11.70;99.90;;;;;;4951082;29;20371;-63
2023/07/07 03:23:03;;;;;;;10.18;3.95;;;11.80;99.90;;;;;;4948790;28;20058;-64
2023/07/07 03:25:29;;;;;;;5.65;3.80;;;11.80;99.90;;;;;;4950792;29;20055;-63
2023/07/07 03:27:56;;;;;;;6.10;3.45;;;11.70;99.90;;;;;;4949308;29;20058;-64
2023/07/07 03:30:23;;;;;;;7.13;4.22;;;11.80;99.90;;;;;;4950848;29;20043;-64
2023/07/07 03:32:48;;;;;;;8.10;4.05;;;11.70;99.90;;;;;;4933189;29;20090;-64
2023/07/07 03:35:14;;;;;;;9.43;3.72;;;11.80;99.90;;;;;;4950045;29;20479;-64
2023/07/07 03:37:40;;;;;;;3.28;2.70;;;11.70;99.90;;;;;;4950569;29;20058;-64
2023/07/07 03:40:09;;;;;;;3.58;2.70;;;11.80;99.90;;;;;;4949339;29;20514;-63
2023/07/07 03:42:36;;;;;;;4.20;2.17;;;11.80;99.90;;;;;;4950866;29;20059;-63
2023/07/07 03:45:01;;;;;;;3.53;2.55;;;11.80;99.90;;;;;;4949175;29;20122;-63
2023/07/07 03:47:27;;;;;;;5.35;2.60;;;11.70;99.90;;;;;;4950518;29;20594;-63
2023/07/07 03:49:54;;;;;;;4.35;2.80;;;11.60;99.90;;;;;;4949008;29;20099;-64
2023/07/07 03:52:20;;;;;;;4.90;3.67;;;11.60;99.90;;;;;;4950481;29;20055;-63
2023/07/07 03:54:46;;;;;;;5.68;3.42;;;11.50;99.90;;;;;;4933319;29;20075;-64
2023/07/07 03:57:12;;;;;;;3.67;3.38;;;11.60;99.90;;;;;;4932071;29;20043;-64
2023/07/07 03:59:38;;;;;;;4.20;3.30;;;11.60;99.90;;;;;;4950728;28;20055;-63
2023/07/07 04:02:04;;;;;;;4.28;3.88;;;11.60;99.90;;;;;;4949203;28;20490;-64
2023/07/07 04:04:30;;;;;;;4.50;4.05;;;11.70;99.90;;;;;;4932783;29;20501;-64
2023/07/07 04:06:57;;;;;;;10.93;4.45;;;11.70;99.90;;;;;;4931573;29;20059;-64
2023/07/07 04:09:23;;;;;;;9.68;4.75;;;11.70;99.90;;;;;;4932553;29;20039;-63
2023/07/07 04:11:49;;;;;;;9.70;4.53;;;11.70;99.90;;;;;;4949776;29;20151;-63
2023/07/07 04:14:15;;;;;;;5.15;4.60;;;11.80;99.90;;;;;;4949409;29;20115;-63
2023/07/07 04:16:41;;;;;;;7.72;4.82;;;11.90;99.90;;;;;;4950240;29;20126;-63
2023/07/07 04:19:07;;;;;;;9.07;4.65;;;11.90;99.90;;;;;;4948561;29;20582;-63
2023/07/07 04:21:34;;;;;;;9.95;4.95;;;11.90;99.90;;;;;;4949744;29;20042;-64
2023/07/07 04:24:01;;;;;;;10.63;5.30;;;12.00;99.90;;;;;;4931146;29;20122;-64
2023/07/07 04:26:29;;;;;;;8.20;4.88;;;12.00;99.90;;;;;;4929354;29;20047;-64
2023/07/07 04:28:57;;;;;;;12.15;4.85;;;12.10;99.90;;;;;;4940146;29;20104;-63
2023/07/07 04:31:24;;;;;;;12.95;5.38;;;12.10;99.90;;;;;;4932314;29;20042;-64
2023/07/07 04:33:50;;;;;;;10.98;5.40;;;12.20;99.90;;;;;;4949475;28;20371;-63
2023/07/07 04:36:16;;;;;;;10.43;5.60;;;12.20;99.90;;;;;;4948272;29;20078;-64
2023/07/07 04:38:44;;;;;;;13.32;6.13;;;12.30;99.90;;;;;;4949504;29;20039;-64
2023/07/07 04:41:17;;;;;;;10.00;5.55;;;12.30;99.90;;;;;;4930761;29;20135;-64
2023/07/07 04:43:45;;;;;;;13.30;5.60;;;12.40;99.90;;;;;;4936006;29;20093;-64
2023/07/07 04:46:14;;;;;;;12.50;6.22;;;12.50;99.90;;;;;;4949089;29;20047;-64
2023/07/07 04:48:40;;;;;;;12.18;6.13;;;12.60;99.90;;;;;;4948972;29;20118;-63
2023/07/07 04:51:10;;;;;;;15.27;6.20;;;12.60;99.90;;;;;;4949376;29;20055;-64
2023/07/07 04:53:38;;;;;;;15.35;6.30;;;12.70;99.90;;;;;;4947833;29;20110;-63
2023/07/07 04:56:12;;;;;;;10.50;5.97;;;12.80;99.90;;;;;;4932417;29;20047;-64
2023/07/07 04:58:39;;;;;;;8.70;6.00;;;12.90;99.90;;;;;;4930381;29;20495;-64
2023/07/07 05:01:20;;;;;;;11.57;6.53;;;12.90;99.90;;;;;;4950739;28;20059;-64
2023/07/07 05:03:52;;;;;;;15.98;6.60;;;13.10;99.90;;;;;;4931531;29;20048;-64
2023/07/07 05:06:19;;;;;;;15.40;6.68;;;13.20;99.90;;;;;;4948615;29;20031;-63
2023/07/07 05:08:45;;;;;;;13.50;6.68;;;13.30;99.90;;;;;;4931997;29;20043;-64
2023/07/07 05:11:15;;;;;;;13.90;7.22;;;13.40;99.90;;;;;;4947541;29;20055;-64
2023/07/07 05:13:41;;;;;;;;;;;13.60;99.90;;;;;;4949122;29;20043;-64
2023/07/07 05:16:13;;;;;;;10.05;6.20;;;13.80;99.90;;;;;;4948202;29;19971;-64
2023/07/07 05:18:39;;;;;;;15.50;6.55;;;13.90;99.90;;;;;;4949088;29;20517;-64
2023/07/07 05:21:07;;;;;;;17.00;7.70;;;14.00;99.90;;;;;;4948488;29;20482;-64
2023/07/07 05:23:34;;;;;;;15.10;6.78;;;14.10;99.90;;;;;;4948349;29;20120;-63
2023/07/07 05:26:00;;;;;;;16.05;7.85;;;14.20;99.90;;;;;;4949364;29;20409;-63
2023/07/07 05:28:26;;;;;;;14.98;7.65;;;14.30;99.90;;;;;;4930473;29;20480;-64
2023/07/07 05:30:52;;;;;;;11.25;7.47;;;14.30;99.90;;;;;;4948923;29;20399;-63
2023/07/07 05:33:20;;;;;;;14.57;6.90;;;14.40;99.90;;;;;;4930827;29;20141;-63
2023/07/07 05:35:48;;;;;;;17.70;7.80;;;14.50;99.90;;;;;;4931804;29;20063;-64
2023/07/07 05:38:15;;;;;;;18.45;7.70;;;14.60;99.90;;;;;;4931573;29;20050;-63
2023/07/07 05:40:42;;;;;;;14.10;6.90;;;14.60;99.90;;;;;;4947822;29;20502;-64
2023/07/07 05:43:08;;;;;;;12.02;7.15;;;14.70;99.90;;;;;;4949325;29;20055;-64
2023/07/07 05:45:34;;;;;;;13.20;7.28;;;14.80;99.90;;;;;;4948443;28;20039;-64
2023/07/07 05:48:00;;;;;;;13.25;7.15;;;14.90;99.90;;;;;;4936231;29;20493;-64
2023/07/07 05:50:26;;;;;;;13.55;7.18;;;14.90;99.90;;;;;;4950849;29;20043;-64
2023/07/07 05:52:51;;;;;;;10.57;7.00;;;15.00;99.90;;;;;;4935711;29;20039;-64
2023/07/07 05:55:29;;;;;;;17.60;7.82;;;15.10;99.90;;;;;;4951686;29;20423;-64
2023/07/07 05:57:55;;;;;;;14.13;6.78;;;15.20;99.90;;;;;;4951945;29;20044;-64
2023/07/07 06:00:22;;;;;;;13.13;7.28;;;15.30;99.90;;;;;;4955098;28;20146;-64
2023/07/07 06:02:49;;;;;;;13.02;7.57;;;15.40;99.90;;;;;;4951418;28;20090;-64
2023/07/07 06:05:15;;;;;;;13.65;7.85;;;15.60;99.90;;;;;;4935622;29;20085;-63
2023/07/07 06:07:41;;;;;;;13.45;7.35;;;15.60;99.90;;;;;;4950319;29;20646;-64
2023/07/07 06:10:10;;;;;;;12.75;7.18;;;15.70;99.90;;;;;;4952480;29;20051;-63
2023/07/07 06:12:37;;;;;;;14.98;7.93;;;15.80;99.90;;;;;;4933766;29;20047;-64
2023/07/07 06:15:04;;;;;;;10.45;7.25;;;15.90;99.90;;;;;;4952023;29;20051;-64
2023/07/07 06:17:29;;;;;;;11.98;7.32;;;15.90;99.90;;;;;;4951684;29;20043;-64
2023/07/07 06:19:55;;;;;;;14.95;7.60;;;16.00;99.90;;;;;;4933170;29;20050;-64
2023/07/07 06:22:21;;;;;;;15.10;7.55;;;16.10;99.90;;;;;;4908628;29;20087;-63
2023/07/07 06:24:47;;;;;;;18.50;7.75;;;16.20;99.90;;;;;;4919326;29;20051;-63
2023/07/07 06:27:13;;;;;;;10.68;6.53;;;16.30;99.90;;;;;;4950377;29;20043;-63
2023/07/07 06:29:39;;;;;;;11.68;5.78;;;16.50;99.90;;;;;;4933204;29;20059;-64
2023/07/07 06:32:05;;;;;;;13.73;6.70;;;16.60;99.90;;;;;;4949705;29;20209;-64
2023/07/07 06:34:31;;;;;;;13.18;5.75;;;16.70;99.90;;;;;;4928603;29;20044;-64
2023/07/07 06:36:59;;;;;;;9.40;5.65;;;16.80;99.90;;;;;;4933559;29;20106;-64
2023/07/07 06:39:26;;;;;;;6.20;4.47;;;16.90;99.90;;;;;;4934805;29;20035;-64
2023/07/07 06:41:56;;;;;;;13.15;5.78;;;17.00;99.90;;;;;;4927546;29;20043;-65
2023/07/07 06:44:22;;;;;;;8.50;5.07;;;17.10;99.90;;;;;;4938649;29;20048;-64
2023/07/07 06:46:48;;;;;;;9.45;5.85;;;17.20;99.90;;;;;;4947849;29;20042;-64
2023/07/07 06:49:14;;;;;;;12.02;4.78;;;17.30;99.90;;;;;;4923104;29;20058;-64
2023/07/07 06:51:40;;;;;;;7.57;4.68;;;17.40;99.90;;;;;;4917026;29;20051;-65
2023/07/07 06:54:05;;;;;;;10.02;5.32;;;17.60;99.90;;;;;;4950555;29;20046;-64
2023/07/07 06:56:31;;;;;;;9.82;4.88;;;17.60;99.90;;;;;;4951407;28;20051;-64
2023/07/07 06:58:57;;;;;;;13.30;5.05;;;17.80;99.90;;;;;;4948717;29;20122;-64
2023/07/07 07:01:23;;;;;;;11.00;4.57;;;17.90;99.90;;;;;;4953283;28;20083;-65
2023/07/07 07:03:49;;;;;;;11.27;4.60;;;18.10;99.90;;;;;;4949930;29;20042;-64
2023/07/07 07:06:15;;;;;;;11.35;5.35;;;18.20;99.90;;;;;;4951875;29;20093;-64
2023/07/07 07:08:40;;;;;;;11.40;4.40;;;18.30;99.90;;;;;;4949698;29;20075;-65
2023/07/07 07:11:06;;;;;;;8.00;4.10;;;18.50;99.90;;;;;;4950647;29;20525;-65
2023/07/07 07:13:32;;;;;;;10.50;4.05;;;18.70;99.90;;;;;;4943840;28;20043;-64
2023/07/07 07:15:58;;;;;;;8.48;4.70;;;18.90;99.90;;;;;;4950062;29;20768;-64
2023/07/07 07:18:24;;;;;;;4.95;3.30;;;19.00;99.90;;;;;;4951696;29;20050;-64
2023/07/07 07:20:54;;;;;;;7.38;4.32;;;19.20;99.90;;;;;;4931173;29;20579;-65
2023/07/07 07:23:20;;;;;;;7.97;3.90;;;19.30;99.90;;;;;;4934039;29;20460;-65
2023/07/07 07:25:46;;;;;;;7.40;3.65;;;19.50;99.90;;;;;;4949478;29;20047;-65
2023/07/07 07:28:13;;;;;;;6.20;3.35;;;19.70;99.90;;;;;;4950302;29;20462;-65
2023/07/07 07:30:40;;;;;;;7.68;4.03;;;20.10;99.90;;;;;;4932359;29;20105;-65
2023/07/07 07:33:11;;;;;;;8.43;3.85;;;20.40;99.90;;;;;;4931795;29;20122;-65
2023/07/07 07:35:37;;;;;;;6.43;3.60;;;20.70;96.40;;;;;;4934055;29;20063;-65
2023/07/07 07:38:03;;;;;;;13.13;3.47;;;21.10;94.60;;;;;;4948456;29;20395;-64
2023/07/07 07:40:29;;;;;;;12.43;3.03;;;21.50;91.70;;;;;;4933333;29;20070;-65
2023/07/07 07:42:55;;;;;;;6.97;2.97;;;21.90;82.40;;;;;;4931660;29;20047;-65
2023/07/07 07:45:22;;;;;;;4.88;3.30;;;22.20;63.70;;;;;;4950700;29;20043;-64
2023/07/07 07:47:50;;;;;;;5.25;2.97;;;22.50;53.80;;;;;;4949132;29;20042;-65
2023/07/07 07:50:16;;;;;;;4.93;3.05;;;22.80;43.40;;;;;;4946356;28;20106;-64
2023/07/07 07:52:43;;;;;;;5.82;3.15;;;23.10;23.00;;;;;;4929118;29;20499;-65
2023/07/07 07:55:09;;;;;;;4.05;2.55;;;23.30;12.30;;;;;;4930042;29;20425;-65
2023/07/07 07:57:35;;;;;;;5.03;2.70;;;23.50;6.60;;;;;;4950596;29;20483;-65
2023/07/07 08:00:01;;;;;;;3.75;2.20;;;23.70;12.70;;;;;;4938121;29;20050;-64
2023/07/07 08:02:27;;;;;;;6.55;2.75;;;23.90;1.00;;;;;;4917085;29;20482;-64
2023/07/07 08:04:52;;;;;;;3.35;2.20;;;24.10;1.00;;;;;;4936252;28;20091;-65
2023/07/07 08:07:18;;;;;;;5.70;2.53;;;24.30;1.00;;;;;;4931104;29;20469;-65
2023/07/07 08:09:44;;;;;;;5.07;2.05;;;24.50;1.00;;;;;;4940948;29;20455;-65
2023/07/07 08:12:10;;;;;;;10.82;2.03;;;24.60;1.00;;;;;;4947892;29;20130;-64
2023/07/07 08:14:36;;;;;;;3.03;1.75;;;24.80;1.00;;;;;;4944398;29;20144;-64
2023/07/07 08:17:11;;;;;;;3.55;2.00;;;25.00;1.00;;;;;;4946482;29;20040;-65
2023/07/07 08:19:39;;;;;;;3.85;1.55;;;25.10;1.00;;;;;;4947685;29;20106;-64
2023/07/07 08:22:08;;;;;;;3.53;1.98;;;25.30;1.00;;;;;;4928665;29;20490;-64
2023/07/07 08:24:39;;;;;;;2.83;1.50;;;25.30;1.00;;;;;;4930569;29;20050;-64
2023/07/07 08:27:07;;;;;;;4.13;1.73;;;25.40;1.00;;;;;;4929320;29;20061;-64
2023/07/07 08:29:32;;;;;;;3.15;1.88;;;25.50;1.00;;;;;;4946479;29;20134;-65
2023/07/07 08:31:58;;;;;;;5.40;2.00;;;25.50;1.00;;;;;;4931427;29;20450;-65
2023/07/07 08:34:24;;;;;;;7.35;2.17;;;25.60;1.00;;;;;;4948661;29;20102;-64
2023/07/07 08:36:50;;;;;;;4.40;1.65;;;25.60;1.00;;;;;;4949959;29;20039;-64
2023/07/07 08:39:20;;;;;;;1.42;1.33;;;25.70;1.00;;;;;;4947719;29;20057;-65
2023/07/07 08:41:52;;;;;;;6.80;2.00;;;25.80;1.00;;;;;;4932468;29;20421;-65
2023/07/07 08:44:21;;;;;;;5.32;2.03;;;25.80;1.00;;;;;;4945894;28;20086;-64
2023/07/07 08:47:02;;;;;;;6.57;1.90;;;26.00;1.00;;;;;;4944367;29;20055;-65
2023/07/07 08:49:35;;;;;;;4.65;1.50;;;26.00;1.00;;;;;;4944482;29;20483;-65
2023/07/07 08:52:10;;;;;;;3.20;1.58;;;26.10;1.00;;;;;;4922255;29;20102;-64
2023/07/07 08:54:43;;;;;;;2.88;1.40;;;26.20;1.00;;;;;;4926900;29;20122;-64
2023/07/07 08:57:12;;;;;;;2.95;1.42;;;26.20;1.00;;;;;;4947720;29;20486;-64
2023/07/07 08:59:47;;;;;;;;;;;26.20;1.00;;;;;;4947939;29;20047;-64
2023/07/07 09:02:34;;;;;;;3.55;1.50;;;26.20;1.00;;;;;;4948594;28;19926;-64
2023/07/07 09:05:12;;;;;;;5.00;1.52;;;26.30;1.00;;;;;;4930077;29;20058;-65
2023/07/07 09:07:56;;;;;;;1.33;1.17;;;26.40;1.00;;;;;;4929909;29;20143;-64
2023/07/07 09:10:22;;;;;;;1.80;1.27;;;26.30;1.00;;;;;;4927296;29;20043;-64
2023/07/07 09:13:01;;;;;;;11.70;1.45;;;26.30;1.00;;;;;;4930035;29;20110;-64
2023/07/07 09:15:39;;;;;;;4.20;1.15;;;26.20;1.00;;;;;;4930229;29;20051;-64
2023/07/07 09:18:31;;;;;;;1.87;1.37;;;26.30;1.00;;;;;;4947512;29;20158;-64
2023/07/07 09:21:01;;;;;;;1.83;1.17;;;26.30;1.00;;;;;;4923662;29;20529;-64
2023/07/07 09:23:36;;;;;;;3.45;1.30;;;26.30;1.00;;;;;;4952943;29;20102;-65
2023/07/07 09:26:25;;;;;;;2.50;0.98;;;26.30;1.00;;;;;;4932782;29;20399;-65
2023/07/07 09:28:52;;;;;;;;;;;26.30;1.00;;;;;;4953073;29;20055;-65
2023/07/07 09:31:33;;;;;;;3.38;1.48;;;26.40;1.00;;;;;;4950865;29;19926;-65
2023/07/07 09:34:02;;;;;;;2.60;1.30;;;26.40;1.00;;;;;;4910580;29;20048;-64
2023/07/07 09:36:38;;;;;;;4.20;1.35;;;26.40;1.00;;;;;;4952871;29;20039;-64
2023/07/07 09:39:35;;;;;;;1.75;0.93;;;26.40;1.00;;;;;;4951737;29;20129;-64
2023/07/07 09:42:01;;;;;;;2.33;1.35;;;26.40;1.00;;;;;;4935628;29;20047;-65
2023/07/07 09:44:53;;;;;;;2.35;1.10;;;26.50;1.00;;;;;;4951022;29;20226;-65
2023/07/07 09:48:02;;;;;;;3.10;1.35;;;26.60;1.00;;;;;;4933964;29;20047;-65
2023/07/07 09:50:45;;;;;;;6.38;1.52;;;26.70;1.00;;;;;;4935532;29;20050;-65
2023/07/07 09:53:23;;;;;;;3.67;1.25;;;26.80;1.00;;;;;;4933548;29;20046;-65
2023/07/07 09:55:49;;;;;;;1.70;1.10;;;26.80;1.00;;;;;;4951308;29;20363;-65
2023/07/07 09:58:17;;;;;;;3.58;1.50;;;26.80;1.00;;;;;;4952417;29;20097;-64
2023/07/07 10:00:47;;;;;;;1.60;1.13;;;26.80;1.00;;;;;;4932539;28;20107;-65
2023/07/07 10:06:37;;;;;;;3.80;1.15;;;26.70;1.00;;;;;;4947177;29;20502;-65
2023/07/07 10:09:04;;;;;;;2.08;1.25;;;26.80;1.00;;;;;;4950124;29;20051;-65
2023/07/07 10:11:41;;;;;;;1.52;1.17;;;26.90;1.00;;;;;;4951531;29;20106;-65
2023/07/07 10:14:14;;;;;;;3.67;1.40;;;26.90;1.00;;;;;;4948680;29;20055;-65
2023/07/07 10:16:55;;;;;;;4.75;1.25;;;26.80;1.00;;;;;;4942471;29;20047;-66
2023/07/07 10:19:24;;;;;;;1.65;1.10;;;26.80;1.00;;;;;;4951116;29;20115;-65
2023/07/07 10:21:50;;;;;;;3.33;1.30;;;26.70;1.00;;;;;;4950379;29;20044;-65
2023/07/07 10:24:16;;;;;;;1.95;1.00;;;26.70;1.00;;;;;;4951280;29;20561;-65
2023/07/07 10:26:47;;;;;;;2.53;1.15;;;26.60;1.00;;;;;;4929421;29;20187;-65
2023/07/07 10:29:22;;;;;;;2.25;1.33;;;26.60;1.00;;;;;;4946730;29;20110;-65
2023/07/07 10:31:51;;;;;;;1.25;0.98;;;26.50;1.00;;;;;;4942640;28;20050;-66
2023/07/07 10:34:25;;;;;;;;;;;26.50;1.00;;;;;;4941126;28;20391;-65
2023/07/07 10:36:54;;;;;;;1.58;1.02;;;26.50;1.00;;;;;;4948995;29;20016;-65
2023/07/07 10:39:22;;;;;;;1.10;1.00;;;26.50;1.00;;;;;;4911947;29;20497;-65
2023/07/07 10:41:48;;;;;;;1.63;1.00;;;26.60;1.00;;;;;;4902032;29;20418;-65
2023/07/07 10:44:13;;;;;;;3.05;1.25;;;26.60;1.00;;;;;;4942706;29;20447;-65
2023/07/07 10:46:39;;;;;;;3.88;1.38;;;26.70;1.00;;;;;;4928556;29;20043;-65
2023/07/07 10:49:13;;;;;;;1.73;1.13;;;26.50;1.00;;;;;;4947703;29;20122;-65
2023/07/07 10:51:55;;;;;;;1.00;1.00;;;26.40;1.00;;;;;;4948589;29;20040;-66
2023/07/07 10:54:41;;;;;;;1.83;1.17;;;26.20;1.00;;;;;;4935128;29;20592;-65
2023/07/07 10:57:27;;;;;;;1.63;0.95;;;26.00;1.00;;;;;;4926776;29;20399;-65
2023/07/07 10:59:54;;;;;;;1.92;1.27;;;26.00;1.00;;;;;;4926993;29;20051;-65
2023/07/07 11:02:38;;;;;;;1.38;1.00;;;26.10;1.00;;;;;;4933917;29;20055;-66
2023/07/07 11:05:19;;;;;;;1.75;1.35;;;26.30;1.00;;;;;;4950116;29;20524;-66
2023/07/07 11:08:15;;;;;;;1.65;1.40;;;26.20;1.00;;;;;;4941167;29;20055;-67
2023/07/07 11:10:51;;;;;;;1.60;1.45;;;25.80;1.00;;;;;;4931559;29;20086;-67
2023/07/07 11:13:21;;;;;;;11.88;1.75;;;25.50;1.00;;;;;;4933654;29;20051;-67
2023/07/07 11:16:14;;;;;;;2.03;1.15;;;25.40;1.00;;;;;;4933685;29;20623;-66
2023/07/07 11:19:02;;;;;;;1.20;1.10;;;25.30;1.00;;;;;;4948799;29;20111;-67
2023/07/07 11:21:36;;;;;;;2.90;1.38;;;25.50;1.00;;;;;;4950686;29;20031;-67
2023/07/07 11:24:13;;;;;;;1.33;1.17;;;25.60;1.00;;;;;;4950761;29;20085;-66
2023/07/07 11:26:51;;;;;;;1.13;1.02;;;25.70;1.00;;;;;;4942837;29;20046;-67
2023/07/07 11:29:48;;;;;;;1.60;1.33;;;25.80;1.00;;;;;;4933288;29;20417;-66
2023/07/07 11:32:44;;;;;;;2.00;1.25;;;25.80;1.00;;;;;;4941427;29;20157;-67
2023/07/07 11:35:28;;;;;;;1.83;1.05;;;25.70;1.00;;;;;;4913117;29;20087;-67
2023/07/07 11:38:15;;;;;;;1.83;1.30;;;25.30;1.00;;;;;;4930372;29;20047;-67
2023/07/07 11:41:22;;;;;;;3.15;1.25;;;25.00;1.00;;;;;;4933631;28;20050;-67
2023/07/07 11:44:22;;;;;;;2.30;1.63;;;24.50;1.00;;;;;;4944513;28;20051;-67
2023/07/07 11:47:18;;;;;;;0.95;0.93;;;24.00;1.00;;;;;;4948400;29;20055;-67
2023/07/07 11:50:27;;;;;;;1.90;1.20;;;23.80;1.00;;;;;;4946540;29;20053;-66
2023/07/07 11:53:05;;;;;;;2.33;1.35;;;23.90;1.00;;;;;;4905864;29;20447;-67
2023/07/07 11:55:49;;;;;;;3.05;1.35;;;24.10;1.00;;;;;;4932191;29;20053;-67
2023/07/07 11:58:30;;;;;;;1.30;1.20;;;24.30;1.00;;;;;;4947232;29;20083;-67
2023/07/07 12:01:14;;;;;;;1.05;0.98;;;24.60;1.00;;;;;;4949694;29;20433;-67
2023/07/07 12:03:44;;;;;;;3.10;1.40;;;24.50;1.00;;;;;;4951453;28;20066;-67
2023/07/07 12:06:21;;;;;;;1.40;1.23;;;24.60;1.00;;;;;;4960838;28;20043;-67
2023/07/07 12:09:00;;;;;;;1.45;0.98;;;24.80;1.00;;;;;;4962692;28;20106;-67
2023/07/07 12:11:49;;;;;;;1.73;1.50;;;24.90;1.00;;;;;;4957087;28;20122;-67
2023/07/07 12:14:38;;;;;;;2.10;1.08;;;24.90;1.00;;;;;;4965286;28;20494;-67
2023/07/07 12:17:07;;;;;;;3.15;1.20;;;24.70;1.00;;;;;;4969909;28;20524;-66
2023/07/07 12:19:51;;;;;;;1.17;0.98;;;24.80;1.00;;;;;;4967853;28;20035;-67
2023/07/07 12:22:21;;;;;;;2.75;1.23;;;24.90;1.00;;;;;;4969139;28;20054;-67
2023/07/07 12:25:21;;;;;;;1.55;1.10;;;25.00;1.00;;;;;;4957407;28;20059;-67
2023/07/07 12:27:51;;;;;;;0.85;0.85;;;25.00;1.00;;;;;;4946913;28;20492;-67
2023/07/07 12:30:47;;;;;;;1.55;1.20;;;24.90;1.00;;;;;;4960157;28;20053;-67
2023/07/07 12:33:16;;;;;;;4.80;1.98;;;24.70;1.00;;;;;;4959671;28;20054;-67
2023/07/07 12:35:47;;;;;;;4.82;1.50;;;24.70;1.00;;;;;;4927571;29;20071;-67
2023/07/07 12:38:26;;;;;;;1.70;0.98;;;24.70;1.00;;;;;;4940152;28;20125;-67
2023/07/07 12:40:58;;;;;;;1.48;1.20;;;24.60;1.00;;;;;;4958663;28;20046;-68
2023/07/07 12:43:43;;;;;;;1.98;1.15;;;24.50;1.00;;;;;;4949879;28;20051;-67
2023/07/07 12:46:28;;;;;;;2.15;1.05;;;24.50;1.00;;;;;;4968448;28;20047;-67
2023/07/07 12:49:00;;;;;;;1.02;1.02;;;24.60;1.00;;;;;;4962805;28;20204;-68
2023/07/07 12:51:32;;;;;;;2.13;1.15;;;24.60;1.00;;;;;;4968439;28;20121;-67
2023/07/07 12:53:58;;;;;;;3.25;1.02;;;24.60;1.00;;;;;;4967314;28;20098;-68
2023/07/07 12:56:25;;;;;;;2.17;1.10;;;24.70;1.00;;;;;;4967726;28;20035;-68
2023/07/07 12:58:52;;;;;;;1.58;1.05;;;24.60;1.00;;;;;;4949771;28;20113;-68
2023/07/07 13:01:18;;;;;;;4.55;1.52;;;24.60;1.00;;;;;;4964330;28;20106;-68
2023/07/07 13:03:55;;;;;;;1.25;1.08;;;24.70;1.00;;;;;;4949252;29;20051;-68
2023/07/07 13:06:32;;;;;;;1.70;1.10;;;24.70;1.00;;;;;;4931304;29;20050;-67
2023/07/07 13:09:13;;;;;;;1.65;1.08;;;24.70;1.00;;;;;;4948516;29;20222;-68
2023/07/07 13:11:50;;;;;;;1.30;1.20;;;24.70;1.00;;;;;;4930713;29;20039;-68
2023/07/07 13:14:28;;;;;;;2.75;1.13;;;24.70;1.00;;;;;;4948587;29;20506;-68
2023/07/07 13:17:02;;;;;;;2.13;1.30;;;24.70;1.00;;;;;;4949319;29;20059;-68